createdAt,value
2022-12-29T00:02:22.383Z,7.90
2022-12-29T00:04:53.005Z,7.90
2022-12-29T00:07:21.223Z,7.90
2022-12-29T00:09:49.476Z,7.90
2022-12-29T00:12:17.650Z,7.90
2022-12-29T00:15:03.269Z,8.00
2022-12-29T00:17:32.223Z,8.00
2022-12-29T00:20:33.706Z,8.00
2022-12-29T00:23:21.459Z,8.10
2022-12-29T00:26:07.063Z,8.00
2022-12-29T00:28:52.868Z,8.00
2022-12-29T00:31:38.464Z,8.10
2022-12-29T00:34:30.085Z,8.10
2022-12-29T00:36:59.744Z,8.10
2022-12-29T00:39:45.715Z,8.20
2022-12-29T00:42:33.938Z,8.20
2022-12-29T00:45:02.349Z,8.20
2022-12-29T00:47:31.368Z,8.20
2022-12-29T00:49:58.454Z,8.20
2022-12-29T00:52:27.979Z,8.20
2022-12-29T00:54:58.205Z,8.20
2022-12-29T00:57:26.332Z,8.20
2022-12-29T00:59:54.633Z,8.20
2022-12-29T01:02:23.021Z,8.10
2022-12-29T01:04:51.286Z,8.20
2022-12-29T01:07:19.526Z,8.10
2022-12-29T01:10:06.703Z,8.10
2022-12-29T01:12:46.183Z,8.10
2022-12-29T01:15:17.302Z,8.10
2022-12-29T01:17:46.492Z,8.10
2022-12-29T01:20:15.362Z,8.10
2022-12-29T01:22:44.778Z,8.10
2022-12-29T01:25:14.420Z,8.10
2022-12-29T01:27:42.645Z,8.20
2022-12-29T01:30:11.872Z,8.20
2022-12-29T01:32:40.071Z,8.20
2022-12-29T01:35:08.887Z,8.20
2022-12-29T01:37:36.938Z,8.20
2022-12-29T01:40:06.211Z,8.20
2022-12-29T01:42:36.731Z,8.20
2022-12-29T01:45:07.445Z,8.10
2022-12-29T01:47:40.257Z,8.10
2022-12-29T01:50:11.055Z,8.10
2022-12-29T01:52:43.410Z,8.10
2022-12-29T01:55:13.171Z,8.10
2022-12-29T01:57:47.455Z,8.00
2022-12-29T02:00:17.916Z,8.00
2022-12-29T02:02:55.052Z,8.00
2022-12-29T02:05:30.054Z,8.00
2022-12-29T02:07:58.622Z,7.90
2022-12-29T02:10:29.689Z,7.90
2022-12-29T02:12:59.412Z,7.90
2022-12-29T02:15:48.943Z,7.90
2022-12-29T02:18:27.801Z,7.90
2022-12-29T02:21:38.024Z,7.90
2022-12-29T02:24:43.662Z,7.90
2022-12-29T02:27:50.727Z,7.90
2022-12-29T02:30:39.916Z,8.00
2022-12-29T02:33:16.347Z,8.00
2022-12-29T02:35:56.137Z,8.00
2022-12-29T02:38:43.366Z,8.10
2022-12-29T02:41:21.850Z,8.20
2022-12-29T02:43:56.413Z,8.20
2022-12-29T02:46:35.955Z,8.20
2022-12-29T02:49:11.835Z,8.20
2022-12-29T02:51:47.521Z,8.30
2022-12-29T02:54:35.851Z,8.40
2022-12-29T02:57:04.255Z,8.40
2022-12-29T02:59:32.547Z,8.40
2022-12-29T03:02:21.978Z,8.50
2022-12-29T03:05:17.459Z,8.50
2022-12-29T03:07:57.593Z,8.50
2022-12-29T03:10:36.071Z,8.60
2022-12-29T03:13:30.565Z,8.70
2022-12-29T03:16:08.069Z,8.80
2022-12-29T03:18:53.763Z,8.90
2022-12-29T03:21:46.331Z,8.90
2022-12-29T03:24:19.706Z,8.90
2022-12-29T03:26:49.814Z,8.90
2022-12-29T03:29:21.412Z,8.90
2022-12-29T03:31:51.787Z,8.90
2022-12-29T03:34:23.705Z,9.00
2022-12-29T03:36:57.845Z,8.90
2022-12-29T03:39:27.261Z,9.00
2022-12-29T03:42:01.626Z,9.00
2022-12-29T03:44:35.514Z,8.90
2022-12-29T03:47:04.481Z,8.90
2022-12-29T03:49:34.711Z,9.00
2022-12-29T03:52:06.002Z,9.00
2022-12-29T03:54:38.923Z,9.00
2022-12-29T03:57:08.184Z,9.00
2022-12-29T03:59:58.947Z,9.00
2022-12-29T04:02:27.263Z,9.00
2022-12-29T04:04:57.136Z,9.00
2022-12-29T04:07:25.563Z,9.00
2022-12-29T04:09:56.362Z,9.00
2022-12-29T04:12:27.770Z,9.00
2022-12-29T04:14:55.951Z,9.10
2022-12-29T04:17:24.197Z,9.10
2022-12-29T04:20:17.535Z,9.10
2022-12-29T04:22:46.339Z,9.10
2022-12-29T04:25:15.274Z,9.10
2022-12-29T04:27:44.423Z,9.10
2022-12-29T04:30:41.777Z,9.20
2022-12-29T04:33:22.901Z,9.20
2022-12-29T04:35:54.023Z,9.20
2022-12-29T04:38:23.701Z,9.20
2022-12-29T04:40:53.094Z,9.20
2022-12-29T04:43:24.082Z,9.10
2022-12-29T04:46:11.233Z,9.10
2022-12-29T04:49:08.791Z,9.10
2022-12-29T04:51:58.630Z,9.10
2022-12-29T04:54:27.261Z,9.10
2022-12-29T04:57:02.424Z,9.20
2022-12-29T04:59:30.709Z,9.20
2022-12-29T05:02:01.797Z,9.20
2022-12-29T05:04:30.692Z,9.20
2022-12-29T05:07:00.670Z,9.20
2022-12-29T05:09:30.867Z,9.20
2022-12-29T05:12:02.145Z,9.30
2022-12-29T05:14:31.803Z,9.30
2022-12-29T05:17:00.033Z,9.40
2022-12-29T05:19:28.512Z,9.50
2022-12-29T05:21:56.699Z,9.40
2022-12-29T05:24:26.625Z,9.40
2022-12-29T05:26:57.154Z,9.40
2022-12-29T05:29:45.582Z,9.50
2022-12-29T05:32:14.425Z,9.50
2022-12-29T05:34:44.191Z,9.50
2022-12-29T05:37:13.146Z,9.60
2022-12-29T05:39:43.985Z,9.60
2022-12-29T05:42:12.493Z,9.60
2022-12-29T05:44:52.984Z,9.60
2022-12-29T05:47:44.302Z,9.60
2022-12-29T05:50:31.260Z,9.70
2022-12-29T05:53:13.723Z,9.70
2022-12-29T05:55:48.686Z,9.70
2022-12-29T05:58:20.004Z,9.80
2022-12-29T06:00:49.415Z,9.80
2022-12-29T06:03:17.692Z,9.90
2022-12-29T06:05:49.141Z,9.90
2022-12-29T06:08:18.341Z,9.90
2022-12-29T06:10:47.877Z,9.90
2022-12-29T06:13:18.398Z,10.00
2022-12-29T06:15:50.651Z,10.00
2022-12-29T06:18:20.615Z,10.00
2022-12-29T06:20:49.578Z,10.00
2022-12-29T06:23:20.023Z,10.10
2022-12-29T06:25:50.598Z,10.10
2022-12-29T06:28:19.250Z,10.10
2022-12-29T06:30:47.882Z,10.10
2022-12-29T06:33:16.307Z,10.10
2022-12-29T06:35:47.790Z,10.20
2022-12-29T06:38:18.215Z,10.20
2022-12-29T06:40:46.808Z,10.10
2022-12-29T06:43:38.959Z,10.00
2022-12-29T06:46:17.163Z,10.00
2022-12-29T06:48:45.375Z,10.10
2022-12-29T06:51:13.458Z,10.10
2022-12-29T06:53:41.622Z,10.10
2022-12-29T06:56:09.978Z,10.10
2022-12-29T06:58:39.430Z,10.10
2022-12-29T07:01:07.966Z,10.20
2022-12-29T07:03:36.436Z,10.20
2022-12-29T07:06:05.152Z,10.30
2022-12-29T07:08:33.277Z,10.20
2022-12-29T07:11:01.595Z,10.20
2022-12-29T07:13:29.703Z,10.20
2022-12-29T07:15:59.223Z,10.00
2022-12-29T07:18:27.416Z,10.00
2022-12-29T07:20:55.529Z,10.10
2022-12-29T07:23:23.629Z,10.00
2022-12-29T07:25:51.855Z,10.00
2022-12-29T07:28:20.918Z,10.10
2022-12-29T07:30:49.173Z,10.10
2022-12-29T07:35:58.682Z,10.10
2022-12-29T07:38:26.771Z,10.10
2022-12-29T07:40:59.298Z,10.10
2022-12-29T07:43:27.487Z,10.10
2022-12-29T07:46:54.112Z,10.10
2022-12-29T07:49:03.196Z,10.20
2022-12-29T07:51:35.146Z,10.10
2022-12-29T07:54:03.273Z,10.20
2022-12-29T07:56:31.424Z,10.20
2022-12-29T07:58:59.455Z,10.20
2022-12-29T08:01:29.739Z,10.30
2022-12-29T08:03:58.092Z,10.30
2022-12-29T08:06:26.263Z,10.30
2022-12-29T08:08:57.166Z,10.30
2022-12-29T08:11:26.016Z,10.30
2022-12-29T08:13:54.521Z,10.30
2022-12-29T08:16:22.651Z,10.30
2022-12-29T08:18:50.763Z,10.30
2022-12-29T08:21:18.860Z,10.30
2022-12-29T08:23:46.924Z,10.30
2022-12-29T08:26:17.410Z,10.30
2022-12-29T08:28:45.521Z,10.40
2022-12-29T08:31:13.761Z,10.40
2022-12-29T08:33:41.873Z,10.30
2022-12-29T08:36:11.122Z,10.40
2022-12-29T08:38:39.249Z,10.30
2022-12-29T08:41:07.385Z,10.40
2022-12-29T08:43:36.811Z,10.40
2022-12-29T08:46:05.227Z,10.30
2022-12-29T08:48:33.444Z,10.30
2022-12-29T08:51:01.630Z,10.40
2022-12-29T08:53:29.831Z,10.40
2022-12-29T08:56:04.996Z,10.40
2022-12-29T08:58:42.883Z,10.40
2022-12-29T09:01:11.905Z,10.40
2022-12-29T09:04:14.231Z,10.40
2022-12-29T09:06:28.203Z,10.50
2022-12-29T09:08:56.613Z,10.50
2022-12-29T09:11:26.421Z,10.50
2022-12-29T09:13:55.920Z,10.60
2022-12-29T09:16:25.793Z,10.60
2022-12-29T09:18:53.969Z,10.60
2022-12-29T09:21:22.220Z,10.70
2022-12-29T09:23:50.691Z,10.70
2022-12-29T09:26:19.284Z,10.70
2022-12-29T09:28:48.066Z,10.70
2022-12-29T09:31:18.681Z,10.80
2022-12-29T09:33:47.601Z,10.80
2022-12-29T09:36:15.691Z,10.80
2022-12-29T09:38:43.799Z,10.80
2022-12-29T09:41:17.487Z,10.80
2022-12-29T09:44:13.187Z,10.90
2022-12-29T09:46:46.450Z,10.90
2022-12-29T09:49:23.344Z,10.80
2022-12-29T09:51:55.301Z,10.90
2022-12-29T09:54:40.729Z,11.00
2022-12-29T09:57:18.413Z,11.10
2022-12-29T09:59:48.646Z,11.10
2022-12-29T10:02:29.318Z,11.10
2022-12-29T10:04:57.596Z,11.20
2022-12-29T10:07:35.141Z,11.30
2022-12-29T10:10:17.570Z,11.30
2022-12-29T10:13:00.564Z,11.30
2022-12-29T10:15:35.795Z,11.30
2022-12-29T10:18:17.439Z,11.40
2022-12-29T10:20:54.163Z,11.40
2022-12-29T10:23:29.122Z,11.30
2022-12-29T10:25:58.837Z,11.50
2022-12-29T10:28:40.148Z,11.60
2022-12-29T10:31:13.829Z,11.70
2022-12-29T10:33:44.675Z,11.70
2022-12-29T10:36:20.110Z,11.80
2022-12-29T10:39:01.042Z,11.90
2022-12-29T10:41:36.467Z,12.00
2022-12-29T10:44:04.685Z,12.10
2022-12-29T10:46:37.993Z,12.20
2022-12-29T10:49:15.466Z,12.20
2022-12-29T10:51:49.901Z,12.20
2022-12-29T10:54:24.044Z,12.20
2022-12-29T10:56:55.924Z,12.10
2022-12-29T10:59:26.323Z,12.10
2022-12-29T11:02:02.624Z,12.20
2022-12-29T11:04:48.752Z,12.30
2022-12-29T11:07:26.690Z,12.30
2022-12-29T11:09:55.698Z,12.30
2022-12-29T11:12:26.433Z,12.30
2022-12-29T11:15:16.822Z,12.30
2022-12-29T11:17:49.456Z,12.30
2022-12-29T11:20:35.310Z,12.30
2022-12-29T11:23:04.340Z,12.30
2022-12-29T11:25:32.871Z,12.20
2022-12-29T11:28:03.499Z,12.20
2022-12-29T11:30:33.414Z,12.10
2022-12-29T11:33:05.775Z,12.10
2022-12-29T11:35:38.070Z,12.10
2022-12-29T11:38:19.360Z,12.00
2022-12-29T11:40:47.584Z,12.00
2022-12-29T11:43:25.617Z,11.90
2022-12-29T11:45:55.056Z,11.80
2022-12-29T11:48:23.784Z,11.80
2022-12-29T11:50:56.624Z,11.70
2022-12-29T11:53:26.407Z,11.60
2022-12-29T11:55:57.593Z,11.50
2022-12-29T11:58:33.261Z,11.50
2022-12-29T12:01:04.999Z,11.50
2022-12-29T12:03:37.187Z,11.40
2022-12-29T12:06:13.791Z,11.40
2022-12-29T12:08:49.174Z,11.30
2022-12-29T12:11:21.303Z,11.20
2022-12-29T12:13:59.456Z,11.00
2022-12-29T12:16:35.897Z,10.80
2022-12-29T12:19:10.885Z,10.60
2022-12-29T12:21:45.794Z,10.50
2022-12-29T12:24:41.514Z,10.50
2022-12-29T12:27:16.195Z,10.40
2022-12-29T12:29:52.279Z,10.40
2022-12-29T12:32:25.306Z,10.30
2022-12-29T12:34:53.785Z,10.40
2022-12-29T12:37:43.796Z,10.40
2022-12-29T12:40:45.992Z,10.30
2022-12-29T12:43:35.193Z,10.30
2022-12-29T12:46:32.213Z,10.30
2022-12-29T12:49:25.404Z,10.30
2022-12-29T12:52:05.216Z,10.30
2022-12-29T12:55:03.002Z,10.30
2022-12-29T12:57:42.834Z,10.20
2022-12-29T13:00:14.255Z,10.20
2022-12-29T13:02:53.406Z,10.10
2022-12-29T13:05:49.118Z,10.20
2022-12-29T13:08:36.347Z,10.20
2022-12-29T13:11:16.347Z,10.20
2022-12-29T13:14:06.731Z,10.10
2022-12-29T13:16:42.819Z,10.00
2022-12-29T13:19:15.917Z,10.00
2022-12-29T13:22:03.871Z,10.00
2022-12-29T13:24:44.832Z,10.10
2022-12-29T13:27:22.775Z,10.00
2022-12-29T13:30:01.814Z,10.00
2022-12-29T13:32:39.814Z,10.00
2022-12-29T13:35:22.566Z,10.00
2022-12-29T13:37:56.323Z,10.00
2022-12-29T13:40:28.239Z,10.10
2022-12-29T13:42:59.274Z,10.10
2022-12-29T13:45:30.938Z,10.10
2022-12-29T13:48:04.754Z,10.10
2022-12-29T13:50:36.020Z,10.10
2022-12-29T13:53:13.043Z,10.10
2022-12-29T13:55:53.726Z,10.20
2022-12-29T13:58:32.779Z,10.10
2022-12-29T14:01:06.182Z,10.10
2022-12-29T14:03:53.340Z,10.10
2022-12-29T14:06:25.438Z,10.20
2022-12-29T14:08:57.000Z,10.10
2022-12-29T14:11:32.090Z,10.10
2022-12-29T14:14:14.113Z,10.10
2022-12-29T14:16:45.483Z,10.10
2022-12-29T14:19:18.147Z,10.00
2022-12-29T14:21:54.847Z,10.00
2022-12-29T14:24:44.351Z,10.00
2022-12-29T14:27:53.304Z,9.90
2022-12-29T14:31:00.915Z,9.90
2022-12-29T14:33:32.717Z,9.90
2022-12-29T14:36:22.345Z,9.90
2022-12-29T14:38:50.729Z,9.90
2022-12-29T14:41:32.603Z,9.90
2022-12-29T14:44:18.875Z,9.90
2022-12-29T14:46:57.387Z,9.90
2022-12-29T14:49:29.558Z,9.90
2022-12-29T14:52:08.278Z,9.90
2022-12-29T14:54:45.032Z,10.00
2022-12-29T14:57:23.255Z,10.10
2022-12-29T14:59:56.547Z,10.00
2022-12-29T15:02:28.050Z,10.00
2022-12-29T15:05:02.943Z,10.00
2022-12-29T15:07:32.139Z,10.00
2022-12-29T15:10:08.357Z,9.90
2022-12-29T15:12:41.299Z,9.90
2022-12-29T15:15:20.217Z,9.90
2022-12-29T15:17:48.635Z,9.90
2022-12-29T15:20:24.283Z,9.90
2022-12-29T15:22:57.065Z,9.90
2022-12-29T15:25:26.086Z,9.90
2022-12-29T15:27:58.069Z,9.90
2022-12-29T15:30:26.419Z,9.80
2022-12-29T15:32:54.930Z,9.80
2022-12-29T15:35:33.383Z,9.80
2022-12-29T15:38:04.235Z,9.70
2022-12-29T15:40:35.422Z,9.70
2022-12-29T15:43:29.304Z,9.70
2022-12-29T15:45:57.682Z,9.60
2022-12-29T15:48:27.327Z,9.70
2022-12-29T15:50:56.857Z,9.60
2022-12-29T15:53:29.597Z,9.60
2022-12-29T15:56:03.132Z,9.50
2022-12-29T15:58:41.230Z,9.50
2022-12-29T16:01:20.098Z,9.50
2022-12-29T16:03:49.232Z,9.50
2022-12-29T16:06:34.259Z,9.40
2022-12-29T16:09:05.049Z,9.40
2022-12-29T16:11:38.502Z,9.50
2022-12-29T16:14:12.308Z,9.50
2022-12-29T16:16:45.247Z,9.60
2022-12-29T16:19:17.768Z,9.50
2022-12-29T16:21:48.357Z,9.60
2022-12-29T16:24:19.254Z,9.60
2022-12-29T16:26:51.955Z,9.70
2022-12-29T16:29:22.690Z,9.70
2022-12-29T16:31:54.438Z,9.60
2022-12-29T16:34:26.500Z,9.70
2022-12-29T16:36:58.747Z,9.60
2022-12-29T16:39:31.701Z,9.70
2022-12-29T16:42:00.507Z,9.70
2022-12-29T16:44:30.769Z,9.80
2022-12-29T16:47:21.531Z,9.70
2022-12-29T16:49:54.511Z,9.80
2022-12-29T16:52:29.168Z,9.70
2022-12-29T16:54:59.382Z,9.70
2022-12-29T16:57:30.748Z,9.60
2022-12-29T17:00:03.486Z,9.60
2022-12-29T17:02:33.903Z,9.60
2022-12-29T17:05:02.139Z,9.60
2022-12-29T17:07:32.530Z,9.60
2022-12-29T17:10:00.649Z,9.60
2022-12-29T17:12:31.778Z,9.60
2022-12-29T17:15:01.722Z,9.60
2022-12-29T17:17:34.611Z,9.60
2022-12-29T17:20:06.935Z,9.60
2022-12-29T17:22:36.892Z,9.60
2022-12-29T17:25:05.409Z,9.60
2022-12-29T17:27:38.807Z,9.70
2022-12-29T17:30:13.063Z,9.80
2022-12-29T17:32:42.190Z,9.80
2022-12-29T17:35:16.087Z,9.90
2022-12-29T17:37:46.027Z,9.80
2022-12-29T17:40:19.280Z,9.90
2022-12-29T17:42:49.327Z,10.00
2022-12-29T17:45:19.348Z,10.00
2022-12-29T17:47:47.711Z,10.00
2022-12-29T17:50:17.814Z,10.00
2022-12-29T17:52:52.340Z,10.10
2022-12-29T17:55:23.052Z,10.10
2022-12-29T17:57:51.321Z,10.10
2022-12-29T18:00:23.233Z,10.10
2022-12-29T18:02:54.280Z,10.10
2022-12-29T18:05:24.319Z,10.10
2022-12-29T18:07:56.009Z,10.00
2022-12-29T18:10:26.723Z,10.00
2022-12-29T18:12:57.175Z,9.90
2022-12-29T18:15:27.216Z,9.80
2022-12-29T18:17:59.426Z,9.80
2022-12-29T18:20:27.736Z,9.80
2022-12-29T18:22:58.771Z,9.80
2022-12-29T18:25:29.211Z,9.70
2022-12-29T18:27:57.360Z,9.60
2022-12-29T18:30:25.916Z,9.60
2022-12-29T18:32:54.549Z,9.50
2022-12-29T18:35:29.259Z,9.50
2022-12-29T18:37:58.780Z,9.50
2022-12-29T18:40:26.865Z,9.50
2022-12-29T18:42:55.067Z,9.40
2022-12-29T18:45:26.479Z,9.40
2022-12-29T18:47:54.629Z,9.30
2022-12-29T18:50:22.709Z,9.40
2022-12-29T18:52:50.841Z,9.50
2022-12-29T18:55:22.663Z,9.40
2022-12-29T18:57:51.064Z,9.40
2022-12-29T19:00:21.659Z,9.40
2022-12-29T19:02:50.916Z,9.40
2022-12-29T19:05:24.957Z,9.50
2022-12-29T19:07:53.464Z,9.50
2022-12-29T19:10:24.931Z,9.50
2022-12-29T19:12:53.725Z,9.50
2022-12-29T19:15:25.430Z,9.50
2022-12-29T19:18:32.471Z,9.50
2022-12-29T19:20:47.062Z,9.40
2022-12-29T19:23:16.798Z,9.40
2022-12-29T19:25:47.501Z,9.30
2022-12-29T19:28:19.453Z,9.30
2022-12-29T19:30:52.250Z,9.20
2022-12-29T19:33:21.266Z,9.20
2022-12-29T19:35:49.722Z,9.20
2022-12-29T19:38:17.811Z,9.10
2022-12-29T19:40:50.330Z,9.10
2022-12-29T19:43:19.504Z,9.00
2022-12-29T19:45:47.645Z,8.90
2022-12-29T19:48:17.284Z,8.90
2022-12-29T19:50:45.999Z,8.80
2022-12-29T19:53:14.565Z,8.80
2022-12-29T19:55:43.579Z,8.90
2022-12-29T19:58:13.839Z,9.00
2022-12-29T20:00:42.448Z,9.10
2022-12-29T20:03:11.167Z,9.10
2022-12-29T20:05:39.685Z,9.10
2022-12-29T20:08:08.079Z,9.10
2022-12-29T20:10:36.113Z,9.20
2022-12-29T20:13:05.908Z,9.20
2022-12-29T20:15:35.391Z,9.20
2022-12-29T20:18:13.773Z,9.20
2022-12-29T20:20:43.078Z,9.20
2022-12-29T20:23:11.310Z,9.20
2022-12-29T20:25:47.640Z,9.30
2022-12-29T20:28:16.871Z,9.30
2022-12-29T20:30:46.654Z,9.30
2022-12-29T20:33:14.826Z,9.30
2022-12-29T20:35:42.910Z,9.30
2022-12-29T20:38:10.992Z,9.40
2022-12-29T20:40:44.400Z,9.40
2022-12-29T20:43:16.959Z,9.50
2022-12-29T20:45:46.592Z,9.40
2022-12-29T20:48:14.702Z,9.40
2022-12-29T20:50:43.012Z,9.40
2022-12-29T20:53:12.046Z,9.40
2022-12-29T20:55:41.293Z,9.40
2022-12-29T20:58:25.803Z,9.40
2022-12-29T21:01:01.493Z,9.50
2022-12-29T21:03:29.759Z,9.50
2022-12-29T21:05:57.988Z,9.50
2022-12-29T21:08:26.607Z,9.50
2022-12-29T21:10:55.197Z,9.50
2022-12-29T21:13:23.337Z,9.40
2022-12-29T21:15:58.805Z,9.50
2022-12-29T21:18:27.282Z,9.50
2022-12-29T21:20:59.072Z,9.50
2022-12-29T21:23:27.640Z,9.40
2022-12-29T21:25:56.397Z,9.40
2022-12-29T21:28:25.703Z,9.40
2022-12-29T21:30:54.166Z,9.40
2022-12-29T21:33:23.771Z,9.40
2022-12-29T21:35:51.957Z,9.40
2022-12-29T21:38:20.061Z,9.50
2022-12-29T21:40:48.626Z,9.40
2022-12-29T21:43:16.701Z,9.50
2022-12-29T21:45:43.809Z,9.50
2022-12-29T21:48:24.970Z,9.40
2022-12-29T21:51:14.159Z,9.40
2022-12-29T21:53:43.925Z,9.30
2022-12-29T21:56:14.124Z,9.20
2022-12-29T21:59:01.275Z,9.20
2022-12-29T22:01:48.991Z,9.10
2022-12-29T22:04:36.342Z,9.00
2022-12-29T22:07:24.796Z,8.90
2022-12-29T22:10:10.621Z,8.80
2022-12-29T22:12:56.947Z,8.80
2022-12-29T22:15:28.575Z,8.70
2022-12-29T22:17:59.178Z,8.70
2022-12-29T22:20:29.842Z,8.70
2022-12-29T22:22:59.614Z,8.70
2022-12-29T22:25:27.911Z,8.60
2022-12-29T22:27:59.540Z,8.60
2022-12-29T22:30:28.707Z,8.60
2022-12-29T22:32:58.854Z,8.60
2022-12-29T22:35:27.113Z,8.50
2022-12-29T22:37:55.527Z,8.50
2022-12-29T22:40:25.686Z,8.50
2022-12-29T22:42:53.854Z,8.50
2022-12-29T22:45:22.006Z,8.50
2022-12-29T22:47:50.345Z,8.40
2022-12-29T22:50:18.609Z,8.40
2022-12-29T22:52:46.781Z,8.30
2022-12-29T22:55:14.843Z,8.30
2022-12-29T22:57:46.318Z,8.30
2022-12-29T23:00:14.720Z,8.20
2022-12-29T23:02:42.985Z,8.30
2022-12-29T23:05:11.657Z,8.30
2022-12-29T23:07:39.882Z,8.30
2022-12-29T23:10:09.012Z,8.40
2022-12-29T23:12:37.308Z,8.40
2022-12-29T23:15:08.001Z,8.40
2022-12-29T23:17:36.941Z,8.40
2022-12-29T23:20:06.953Z,8.40
2022-12-29T23:22:35.027Z,8.40
2022-12-29T23:25:03.097Z,8.40
2022-12-29T23:27:31.181Z,8.40
2022-12-29T23:29:59.245Z,8.40
2022-12-29T23:32:28.713Z,8.40
2022-12-29T23:34:56.729Z,8.50
2022-12-29T23:37:24.843Z,8.50
2022-12-29T23:39:52.857Z,8.50
2022-12-29T23:42:20.940Z,8.50
2022-12-29T23:44:49.057Z,8.50
2022-12-29T23:47:17.127Z,8.40
2022-12-29T23:49:46.644Z,8.40
2022-12-29T23:52:17.139Z,8.40
2022-12-29T23:54:45.192Z,8.40
2022-12-29T23:57:13.239Z,8.40
2022-12-29T23:59:41.306Z,8.30
